createdAt,value
2024-01-08T00:00:50.222Z,77.48
2024-01-08T00:01:50.435Z,77.80
2024-01-08T00:02:50.127Z,78.01
2024-01-08T00:03:50.149Z,77.59
2024-01-08T00:04:50.152Z,76.96
2024-01-08T00:05:50.167Z,77.38
2024-01-08T00:06:50.081Z,76.86
2024-01-08T00:07:50.112Z,76.65
2024-01-08T00:08:50.067Z,77.07
2024-01-08T00:09:50.057Z,77.28
2024-01-08T00:10:50.067Z,77.28
2024-01-08T00:11:50.029Z,76.65
2024-01-08T00:12:50.044Z,76.33
2024-01-08T00:13:50.035Z,76.75
2024-01-08T00:14:50.002Z,76.75
2024-01-08T00:15:50.011Z,76.33
2024-01-08T00:16:50.032Z,76.96
2024-01-08T00:17:50.016Z,77.17
2024-01-08T00:18:50.050Z,76.96
2024-01-08T00:19:50.006Z,76.86
2024-01-08T00:20:49.991Z,76.96
2024-01-08T00:21:49.929Z,77.28
2024-01-08T00:22:49.925Z,77.17
2024-01-08T00:23:49.919Z,76.96
2024-01-08T00:24:49.917Z,76.96
2024-01-08T00:25:49.960Z,76.75
2024-01-08T00:26:49.880Z,76.65
2024-01-08T00:27:49.877Z,76.96
2024-01-08T00:28:49.945Z,77.07
2024-01-08T00:29:49.882Z,76.86
2024-01-08T00:30:49.906Z,76.43
2024-01-08T00:31:49.855Z,76.54
2024-01-08T00:32:50.102Z,76.33
2024-01-08T00:33:49.928Z,75.60
2024-01-08T00:34:49.834Z,75.92
2024-01-08T00:35:49.802Z,76.65
2024-01-08T00:36:49.772Z,77.07
2024-01-08T00:37:49.789Z,76.75
2024-01-08T00:38:49.773Z,76.33
2024-01-08T00:39:49.757Z,76.33
2024-01-08T00:40:49.757Z,76.43
2024-01-08T00:41:49.719Z,75.53
2024-01-08T00:42:49.711Z,76.47
2024-01-08T00:43:49.719Z,76.57
2024-01-08T00:44:49.711Z,77.00
2024-01-08T00:45:49.682Z,77.10
2024-01-08T00:46:49.679Z,76.57
2024-01-08T00:47:49.670Z,76.16
2024-01-08T00:48:49.744Z,76.57
2024-01-08T00:49:49.683Z,76.79
2024-01-08T00:50:49.736Z,76.26
2024-01-08T00:51:49.629Z,75.95
2024-01-08T00:52:49.631Z,76.26
2024-01-08T00:53:49.615Z,76.68
2024-01-08T00:54:50.309Z,76.26
2024-01-08T00:55:49.601Z,76.57
2024-01-08T00:56:49.573Z,76.68
2024-01-08T00:57:49.565Z,77.10
2024-01-08T00:58:49.596Z,76.79
2024-01-08T00:59:49.537Z,76.16
2024-01-08T01:00:49.566Z,76.37
2024-01-08T01:01:49.573Z,75.42
2024-01-08T01:02:49.744Z,75.53
2024-01-08T01:03:49.754Z,75.74
2024-01-08T01:04:49.695Z,75.21
2024-01-08T01:05:49.556Z,75.74
2024-01-08T01:06:49.464Z,76.05
2024-01-08T01:07:49.512Z,75.95
2024-01-08T01:08:49.472Z,75.84
2024-01-08T01:09:49.440Z,75.74
2024-01-08T01:10:49.457Z,75.95
2024-01-08T01:11:49.438Z,76.26
2024-01-08T01:12:49.424Z,76.16
2024-01-08T01:13:49.429Z,76.05
2024-01-08T01:14:49.394Z,76.26
2024-01-08T01:15:49.389Z,75.11
2024-01-08T01:16:49.441Z,74.48
2024-01-08T01:17:49.690Z,74.90
2024-01-08T01:18:49.443Z,74.90
2024-01-08T01:19:49.378Z,75.11
2024-01-08T01:20:49.326Z,75.11
2024-01-08T01:21:49.341Z,74.79
2024-01-08T01:22:49.366Z,74.90
2024-01-08T01:23:49.302Z,75.32
2024-01-08T01:24:49.295Z,75.84
2024-01-08T01:25:49.353Z,75.74
2024-01-08T01:26:49.292Z,75.53
2024-01-08T01:27:49.266Z,75.49
2024-01-08T01:28:49.271Z,74.34
2024-01-08T01:29:49.249Z,74.24
2024-01-08T01:30:49.274Z,74.02
2024-01-08T01:31:49.261Z,73.96
2024-01-08T01:32:49.335Z,74.34
2024-01-08T01:33:49.363Z,74.44
2024-01-08T01:34:49.231Z,74.34
2024-01-08T01:35:49.190Z,74.13
2024-01-08T01:36:49.176Z,74.48
2024-01-08T01:37:49.191Z,74.13
2024-01-08T01:38:49.149Z,73.64
2024-01-08T01:39:49.144Z,74.02
2024-01-08T01:40:49.230Z,74.37
2024-01-08T01:41:49.131Z,74.02
2024-01-08T01:42:49.107Z,73.92
2024-01-08T01:43:49.152Z,73.85
2024-01-08T01:44:49.083Z,73.64
2024-01-08T01:45:49.088Z,73.43
2024-01-08T01:46:49.211Z,73.11
2024-01-08T01:47:49.196Z,73.43
2024-01-08T01:48:49.187Z,73.71
2024-01-08T01:49:49.090Z,73.50
2024-01-08T01:50:49.039Z,73.39
2024-01-08T01:51:49.027Z,73.39
2024-01-08T01:52:49.019Z,72.77
2024-01-08T01:53:48.991Z,71.86
2024-01-08T01:54:49.029Z,72.28
2024-01-08T01:55:49.013Z,73.01
2024-01-08T01:56:48.970Z,73.33
2024-01-08T01:57:48.948Z,73.11
2024-01-08T01:58:49.001Z,73.11
2024-01-08T01:59:48.970Z,73.43
2024-01-08T02:00:48.956Z,73.64
2024-01-08T02:01:48.957Z,73.22
2024-01-08T02:02:49.286Z,73.33
2024-01-08T02:03:48.989Z,73.74
2024-01-08T02:04:49.087Z,74.16
2024-01-08T02:05:48.964Z,73.43
2024-01-08T02:06:48.856Z,73.22
2024-01-08T02:07:48.938Z,73.01
2024-01-08T02:08:48.851Z,73.43
2024-01-08T02:09:48.857Z,73.54
2024-01-08T02:10:48.887Z,73.01
2024-01-08T02:11:48.805Z,72.80
2024-01-08T02:12:48.797Z,72.69
2024-01-08T02:13:48.936Z,72.80
2024-01-08T02:14:48.792Z,72.91
2024-01-08T02:15:48.769Z,73.50
2024-01-08T02:16:48.792Z,73.50
2024-01-08T02:17:49.049Z,73.71
2024-01-08T02:18:48.803Z,73.39
2024-01-08T02:19:48.804Z,73.61
2024-01-08T02:20:48.740Z,73.82
2024-01-08T02:21:48.726Z,73.82
2024-01-08T02:22:48.714Z,73.61
2024-01-08T02:23:48.812Z,73.61
2024-01-08T02:24:48.676Z,73.61
2024-01-08T02:25:48.702Z,73.50
2024-01-08T02:26:48.668Z,72.98
2024-01-08T02:27:48.644Z,73.19
2024-01-08T02:28:48.697Z,73.08
2024-01-08T02:29:48.634Z,73.71
2024-01-08T02:30:48.686Z,73.29
2024-01-08T02:31:48.669Z,73.11
2024-01-08T02:32:48.758Z,73.11
2024-01-08T02:33:48.856Z,73.01
2024-01-08T02:34:48.701Z,73.01
2024-01-08T02:35:48.655Z,72.38
2024-01-08T02:36:48.580Z,72.80
2024-01-08T02:37:48.585Z,73.11
2024-01-08T02:38:48.542Z,73.33
2024-01-08T02:39:48.537Z,73.11
2024-01-08T02:40:48.559Z,72.69
2024-01-08T02:41:48.503Z,72.49
2024-01-08T02:42:48.512Z,72.80
2024-01-08T02:43:48.532Z,73.43
2024-01-08T02:44:48.470Z,73.33
2024-01-08T02:45:48.479Z,73.74
2024-01-08T02:46:48.474Z,73.33
2024-01-08T02:47:48.533Z,72.80
2024-01-08T02:48:48.526Z,73.11
2024-01-08T02:49:48.524Z,72.17
2024-01-08T02:50:48.413Z,72.38
2024-01-08T02:51:48.423Z,73.11
2024-01-08T02:52:48.448Z,73.64
2024-01-08T02:53:48.386Z,73.22
2024-01-08T02:54:48.371Z,73.01
2024-01-08T02:55:48.420Z,73.54
2024-01-08T02:56:48.361Z,73.85
2024-01-08T02:57:48.373Z,73.33
2024-01-08T02:58:48.468Z,72.91
2024-01-08T02:59:48.325Z,73.11
2024-01-08T03:00:48.339Z,73.74
2024-01-08T03:01:48.348Z,74.16
2024-01-08T03:02:48.344Z,74.37
2024-01-08T03:03:48.317Z,73.22
2024-01-08T03:04:48.302Z,72.91
2024-01-08T03:05:48.302Z,72.80
2024-01-08T03:06:48.281Z,73.11
2024-01-08T03:07:48.350Z,73.22
2024-01-08T03:08:48.262Z,73.22
2024-01-08T03:09:48.223Z,72.80
2024-01-08T03:10:48.492Z,72.80
2024-01-08T03:11:48.242Z,73.22
2024-01-08T03:12:48.208Z,73.22
2024-01-08T03:13:48.225Z,73.33
2024-01-08T03:14:48.182Z,73.54
2024-01-08T03:15:48.178Z,73.64
2024-01-08T03:16:48.156Z,73.64
2024-01-08T03:17:48.179Z,73.54
2024-01-08T03:18:48.199Z,73.43
2024-01-08T03:19:48.136Z,73.33
2024-01-08T03:20:48.129Z,72.38
2024-01-08T03:21:48.102Z,72.91
2024-01-08T03:22:48.092Z,73.43
2024-01-08T03:23:48.153Z,73.64
2024-01-08T03:24:48.119Z,73.96
2024-01-08T03:25:48.095Z,73.64
2024-01-08T03:26:48.053Z,73.33
2024-01-08T03:27:48.049Z,73.33
2024-01-08T03:28:48.038Z,73.54
2024-01-08T03:29:48.043Z,73.96
2024-01-08T03:30:48.095Z,73.43
2024-01-08T03:31:48.030Z,73.11
2024-01-08T03:32:48.084Z,73.64
2024-01-08T03:33:48.072Z,73.64
2024-01-08T03:34:47.995Z,74.16
2024-01-08T03:35:47.961Z,74.16
2024-01-08T03:36:47.955Z,74.06
2024-01-08T03:37:47.945Z,73.96
2024-01-08T03:38:47.942Z,73.85
2024-01-08T03:39:47.946Z,74.06
2024-01-08T03:40:47.938Z,74.27
2024-01-08T03:41:55.885Z,74.16
2024-01-08T03:42:47.892Z,74.16
2024-01-08T03:43:47.905Z,73.85
2024-01-08T03:44:47.892Z,73.22
2024-01-08T03:45:47.861Z,73.11
2024-01-08T03:46:47.870Z,72.80
2024-01-08T03:47:48.015Z,73.01
2024-01-08T03:48:47.894Z,72.91
2024-01-08T03:49:47.843Z,72.28
2024-01-08T03:50:47.937Z,72.06
2024-01-08T03:51:47.807Z,71.96
2024-01-08T03:52:47.906Z,71.75
2024-01-08T03:53:47.868Z,72.52
2024-01-08T03:54:47.782Z,73.11
2024-01-08T03:55:47.768Z,73.04
2024-01-08T03:56:47.850Z,72.41
2024-01-08T03:57:47.755Z,72.94
2024-01-08T03:58:48.183Z,73.36
2024-01-08T03:59:47.786Z,73.25
2024-01-08T04:00:47.735Z,73.25
2024-01-08T04:01:47.750Z,73.99
2024-01-08T04:02:47.833Z,74.09
2024-01-08T04:03:47.756Z,73.78
2024-01-08T04:04:47.673Z,73.57
2024-01-08T04:05:47.772Z,73.57
2024-01-08T04:06:47.759Z,73.57
2024-01-08T04:07:47.654Z,73.33
2024-01-08T04:08:47.732Z,73.54
2024-01-08T04:09:47.633Z,73.57
2024-01-08T04:10:47.629Z,73.78
2024-01-08T04:11:47.602Z,73.74
2024-01-08T04:12:47.641Z,73.68
2024-01-08T04:13:47.611Z,73.22
2024-01-08T04:14:47.592Z,73.01
2024-01-08T04:15:47.559Z,73.25
2024-01-08T04:16:47.625Z,73.11
2024-01-08T04:17:47.811Z,73.15
2024-01-08T04:18:47.591Z,73.15
2024-01-08T04:19:47.532Z,73.04
2024-01-08T04:20:47.513Z,72.41
2024-01-08T04:21:48.723Z,73.25
2024-01-08T04:22:47.520Z,73.46
2024-01-08T04:23:47.489Z,73.57
2024-01-08T04:24:47.472Z,73.64
2024-01-08T04:25:47.461Z,73.54
2024-01-08T04:26:47.490Z,73.54
2024-01-08T04:27:47.454Z,73.54
2024-01-08T04:28:47.465Z,73.54
2024-01-08T04:29:47.431Z,73.74
2024-01-08T04:30:47.466Z,73.43
2024-01-08T04:31:47.477Z,73.33
2024-01-08T04:32:47.618Z,72.91
2024-01-08T04:33:47.596Z,73.22
2024-01-08T04:34:47.369Z,73.74
2024-01-08T04:35:47.370Z,73.96
2024-01-08T04:36:47.365Z,74.37
2024-01-08T04:37:47.339Z,74.37
2024-01-08T04:38:47.340Z,74.48
2024-01-08T04:39:47.326Z,74.27
2024-01-08T04:40:47.329Z,74.16
2024-01-08T04:41:47.297Z,74.16
2024-01-08T04:42:48.755Z,73.96
2024-01-08T04:43:47.285Z,74.16
2024-01-08T04:44:47.307Z,73.85
2024-01-08T04:45:47.279Z,73.43
2024-01-08T04:46:47.259Z,73.85
2024-01-08T04:47:47.390Z,74.37
2024-01-08T04:48:47.365Z,74.79
2024-01-08T04:49:47.226Z,74.90
2024-01-08T04:50:47.234Z,75.01
2024-01-08T04:51:47.214Z,75.11
2024-01-08T04:52:47.185Z,74.48
2024-01-08T04:53:47.187Z,74.06
2024-01-08T04:54:47.190Z,74.27
2024-01-08T04:55:47.154Z,74.06
2024-01-08T04:56:47.148Z,74.27
2024-01-08T04:57:47.136Z,74.37
2024-01-08T04:58:47.125Z,74.48
2024-01-08T04:59:47.135Z,74.90
2024-01-08T05:00:47.180Z,74.69
2024-01-08T05:01:47.095Z,74.83
2024-01-08T05:02:47.208Z,75.25
2024-01-08T05:03:47.151Z,75.04
2024-01-08T05:04:47.094Z,75.04
2024-01-08T05:05:47.143Z,75.25
2024-01-08T05:06:47.122Z,75.25
2024-01-08T05:07:47.041Z,75.46
2024-01-08T05:08:47.064Z,75.32
2024-01-08T05:09:47.032Z,75.53
2024-01-08T05:10:47.007Z,75.32
2024-01-08T05:11:47.849Z,75.11
2024-01-08T05:12:47.000Z,75.42
2024-01-08T05:13:46.991Z,75.67
2024-01-08T05:14:46.967Z,75.25
2024-01-08T05:15:46.959Z,75.14
2024-01-08T05:16:46.966Z,75.25
2024-01-08T05:17:47.300Z,74.73
2024-01-08T05:18:47.070Z,75.25
2024-01-08T05:19:46.917Z,75.78
2024-01-08T05:20:46.941Z,75.78
2024-01-08T05:21:46.893Z,76.19
2024-01-08T05:22:46.886Z,75.98
2024-01-08T05:23:48.510Z,75.78
2024-01-08T05:24:46.862Z,75.67
2024-01-08T05:25:46.850Z,75.56
2024-01-08T05:26:46.911Z,75.04
2024-01-08T05:27:46.845Z,75.14
2024-01-08T05:28:46.838Z,75.35
2024-01-08T05:29:46.856Z,75.46
2024-01-08T05:30:46.836Z,75.25
2024-01-08T05:31:46.874Z,75.25
2024-01-08T05:32:46.926Z,75.46
2024-01-08T05:33:46.935Z,75.98
2024-01-08T05:34:46.763Z,75.88
2024-01-08T05:35:46.827Z,75.78
2024-01-08T05:36:46.740Z,75.04
2024-01-08T05:37:46.746Z,75.04
2024-01-08T05:38:46.730Z,75.56
2024-01-08T05:39:46.712Z,75.56
2024-01-08T05:40:46.703Z,75.25
2024-01-08T05:41:46.745Z,75.35
2024-01-08T05:42:46.727Z,75.88
2024-01-08T05:43:46.675Z,76.29
2024-01-08T05:44:46.674Z,76.51
2024-01-08T05:45:46.652Z,76.29
2024-01-08T05:46:46.661Z,76.40
2024-01-08T05:47:46.735Z,76.29
2024-01-08T05:48:46.727Z,76.51
2024-01-08T05:49:46.630Z,76.51
2024-01-08T05:50:46.615Z,76.29
2024-01-08T05:51:46.612Z,75.98
2024-01-08T05:52:46.586Z,76.29
2024-01-08T05:53:46.623Z,75.88
2024-01-08T05:54:46.566Z,75.14
2024-01-08T05:55:46.554Z,75.25
2024-01-08T05:56:46.564Z,75.14
2024-01-08T05:57:46.532Z,75.04
2024-01-08T05:58:46.522Z,75.14
2024-01-08T05:59:46.542Z,75.46
2024-01-08T06:00:46.564Z,75.46
2024-01-08T06:01:46.572Z,74.62
2024-01-08T06:02:46.525Z,74.83
2024-01-08T06:03:46.517Z,75.25
2024-01-08T06:04:46.534Z,75.35
2024-01-08T06:05:46.567Z,75.67
2024-01-08T06:06:46.480Z,74.51
2024-01-08T06:07:46.436Z,74.93
2024-01-08T06:08:46.425Z,73.99
2024-01-08T06:09:46.413Z,73.68
2024-01-08T06:10:46.439Z,73.88
2024-01-08T06:11:46.445Z,73.78
2024-01-08T06:12:46.387Z,73.68
2024-01-08T06:13:46.437Z,74.09
2024-01-08T06:14:46.409Z,73.99
2024-01-08T06:15:46.414Z,73.99
2024-01-08T06:16:46.347Z,74.09
2024-01-08T06:17:46.984Z,74.41
2024-01-08T06:18:46.541Z,74.51
2024-01-08T06:19:46.319Z,74.83
2024-01-08T06:20:46.371Z,74.93
2024-01-08T06:21:46.290Z,75.35
2024-01-08T06:22:46.280Z,75.35
2024-01-08T06:23:48.720Z,75.25
2024-01-08T06:24:46.274Z,75.14
2024-01-08T06:25:46.264Z,74.83
2024-01-08T06:26:46.266Z,74.41
2024-01-08T06:27:46.228Z,73.15
2024-01-08T06:28:46.228Z,72.94
2024-01-08T06:29:46.223Z,71.89
2024-01-08T06:30:46.273Z,71.58
2024-01-08T06:31:46.188Z,71.89
2024-01-08T06:32:46.398Z,72.20
2024-01-08T06:33:46.238Z,71.05
2024-01-08T06:34:46.357Z,71.15
2024-01-08T06:35:46.179Z,72.31
2024-01-08T06:36:46.162Z,71.78
2024-01-08T06:37:46.134Z,70.95
2024-01-08T06:38:46.143Z,69.68
2024-01-08T06:39:46.131Z,70.10
2024-01-08T06:40:46.133Z,70.73
2024-01-08T06:41:46.091Z,70.63
2024-01-08T06:42:56.767Z,70.31
2024-01-08T06:43:47.096Z,69.90
2024-01-08T06:44:46.069Z,69.58
2024-01-08T06:45:46.058Z,70.00
2024-01-08T06:46:46.041Z,70.63
2024-01-08T06:47:46.091Z,70.73
2024-01-08T06:48:46.115Z,70.63
2024-01-08T06:49:46.004Z,70.42
2024-01-08T06:50:46.024Z,70.42
2024-01-08T06:51:45.997Z,70.21
2024-01-08T06:52:48.303Z,70.42
2024-01-08T06:53:45.986Z,70.10
2024-01-08T06:54:45.968Z,70.10
2024-01-08T06:55:45.954Z,70.31
2024-01-08T06:56:45.998Z,70.31
2024-01-08T06:57:45.955Z,70.53
2024-01-08T06:58:45.943Z,71.05
2024-01-08T06:59:48.572Z,71.05
2024-01-08T07:00:45.924Z,71.26
2024-01-08T07:01:45.889Z,71.58
2024-01-08T07:02:46.021Z,71.26
2024-01-08T07:03:45.936Z,71.26
2024-01-08T07:04:45.905Z,71.78
2024-01-08T07:05:48.536Z,72.63
2024-01-08T07:06:45.842Z,73.25
2024-01-08T07:07:45.839Z,73.36
2024-01-08T07:08:45.940Z,73.28
2024-01-08T07:09:45.818Z,73.08
2024-01-08T07:10:45.819Z,73.28
2024-01-08T07:11:45.867Z,73.71
2024-01-08T07:12:46.166Z,73.60
2024-01-08T07:13:45.774Z,74.23
2024-01-08T07:14:45.822Z,74.13
2024-01-08T07:15:45.757Z,74.33
2024-01-08T07:16:45.774Z,73.92
2024-01-08T07:17:45.846Z,73.71
2024-01-08T07:18:46.025Z,73.99
2024-01-08T07:19:45.714Z,73.88
2024-01-08T07:20:45.743Z,73.57
2024-01-08T07:21:45.709Z,73.78
2024-01-08T07:22:45.690Z,72.97
2024-01-08T07:23:45.709Z,72.97
2024-01-08T07:24:45.688Z,72.66
2024-01-08T07:25:45.684Z,72.13
2024-01-08T07:26:45.837Z,72.13
2024-01-08T07:27:45.643Z,72.41
2024-01-08T07:28:45.667Z,72.83
2024-01-08T07:29:45.686Z,72.52
2024-01-08T07:30:45.675Z,72.31
2024-01-08T07:31:45.599Z,72.41
2024-01-08T07:32:45.657Z,72.83
2024-01-08T07:33:45.650Z,72.63
2024-01-08T07:34:45.578Z,71.78
2024-01-08T07:35:45.617Z,71.47
2024-01-08T07:36:45.550Z,71.15
2024-01-08T07:37:45.547Z,71.47
2024-01-08T07:38:45.579Z,71.89
2024-01-08T07:39:45.528Z,72.20
2024-01-08T07:40:45.546Z,72.73
2024-01-08T07:41:45.530Z,73.04
2024-01-08T07:42:45.483Z,73.46
2024-01-08T07:43:45.482Z,73.36
2024-01-08T07:44:45.732Z,73.46
2024-01-08T07:45:45.479Z,73.04
2024-01-08T07:46:45.451Z,73.04
2024-01-08T07:47:45.532Z,73.46
2024-01-08T07:48:45.584Z,73.78
2024-01-08T07:49:45.433Z,73.78
2024-01-08T07:50:45.493Z,73.88
2024-01-08T07:51:45.398Z,73.99
2024-01-08T07:52:45.380Z,73.88
2024-01-08T07:53:45.426Z,74.30
2024-01-08T07:54:45.604Z,74.62
2024-01-08T07:55:45.365Z,74.83
2024-01-08T07:56:53.011Z,75.04
2024-01-08T07:57:46.333Z,75.35
2024-01-08T07:58:45.563Z,75.35
2024-01-08T07:59:45.419Z,75.25
2024-01-08T08:00:45.370Z,75.88
2024-01-08T08:01:45.355Z,76.09
2024-01-08T08:02:45.496Z,76.09
2024-01-08T08:03:45.375Z,76.51
2024-01-08T08:04:45.323Z,77.14
2024-01-08T08:05:45.366Z,77.24
2024-01-08T08:06:45.638Z,77.56
2024-01-08T08:07:45.246Z,78.08
2024-01-08T08:08:45.383Z,78.19
2024-01-08T08:09:45.228Z,78.08
2024-01-08T08:10:45.209Z,78.50
2024-01-08T08:11:45.230Z,78.81
2024-01-08T08:12:45.260Z,78.92
2024-01-08T08:13:45.194Z,79.13
2024-01-08T08:14:45.179Z,79.44
2024-01-08T08:15:45.176Z,79.76
2024-01-08T08:16:45.136Z,79.58
2024-01-08T08:17:45.222Z,79.80
2024-01-08T08:18:45.193Z,80.43
2024-01-08T08:19:45.146Z,80.85
2024-01-08T08:20:45.150Z,81.16
2024-01-08T08:21:45.093Z,81.37
2024-01-08T08:22:46.257Z,81.69
2024-01-08T08:23:45.191Z,81.27
2024-01-08T08:24:45.063Z,81.48
2024-01-08T08:25:45.053Z,81.16
2024-01-08T08:26:45.070Z,81.05
2024-01-08T08:27:45.045Z,81.48
2024-01-08T08:28:45.066Z,81.90
2024-01-08T08:29:45.074Z,81.58
2024-01-08T08:30:45.056Z,81.05
2024-01-08T08:31:45.087Z,81.16
2024-01-08T08:32:45.059Z,80.95
2024-01-08T08:33:45.068Z,81.16
2024-01-08T08:34:45.010Z,80.95
2024-01-08T08:35:44.988Z,80.95
2024-01-08T08:36:44.960Z,80.85
2024-01-08T08:37:52.799Z,80.85
2024-01-08T08:38:45.996Z,80.00
2024-01-08T08:39:44.926Z,79.80
2024-01-08T08:40:44.925Z,79.69
2024-01-08T08:41:44.958Z,79.58
2024-01-08T08:42:44.887Z,79.69
2024-01-08T08:43:44.877Z,79.48
2024-01-08T08:44:44.898Z,79.17
2024-01-08T08:45:44.860Z,79.38
2024-01-08T08:46:44.853Z,79.27
2024-01-08T08:47:44.997Z,78.43
2024-01-08T08:48:45.012Z,78.33
2024-01-08T08:49:44.875Z,78.75
2024-01-08T08:50:45.294Z,78.64
2024-01-08T08:51:44.808Z,78.75
2024-01-08T08:52:44.788Z,78.22
2024-01-08T08:53:44.803Z,78.22
2024-01-08T08:54:44.765Z,77.91
2024-01-08T08:55:44.784Z,77.48
2024-01-08T08:56:44.772Z,77.07
2024-01-08T08:57:44.794Z,75.91
2024-01-08T08:58:44.731Z,75.07
2024-01-08T08:59:47.997Z,75.70
2024-01-08T09:00:44.836Z,75.28
2024-01-08T09:01:44.703Z,75.18
2024-01-08T09:02:44.827Z,75.04
2024-01-08T09:03:44.719Z,74.73
2024-01-08T09:04:44.764Z,73.78
2024-01-08T09:05:47.081Z,73.57
2024-01-08T09:06:44.709Z,73.99
2024-01-08T09:07:44.633Z,74.51
2024-01-08T09:08:44.653Z,74.30
2024-01-08T09:09:44.628Z,73.68
2024-01-08T09:10:44.627Z,73.15
2024-01-08T09:11:44.657Z,72.83
2024-01-08T09:12:47.113Z,72.31
2024-01-08T09:13:44.589Z,72.10
2024-01-08T09:14:44.608Z,71.47
2024-01-08T09:15:44.552Z,71.58
2024-01-08T09:16:44.609Z,71.36
2024-01-08T09:17:44.641Z,71.05
2024-01-08T09:18:44.578Z,71.36
2024-01-08T09:19:46.844Z,71.36
2024-01-08T09:20:44.587Z,71.47
2024-01-08T09:21:44.498Z,71.99
2024-01-08T09:22:44.487Z,71.78
2024-01-08T09:23:44.517Z,71.47
2024-01-08T09:24:44.475Z,71.89
2024-01-08T09:25:44.460Z,71.75
2024-01-08T09:26:44.558Z,72.17
2024-01-08T09:27:44.437Z,71.75
2024-01-08T09:28:44.439Z,71.65
2024-01-08T09:29:44.501Z,71.12
2024-01-08T09:30:44.427Z,70.60
2024-01-08T09:31:44.401Z,70.81
2024-01-08T09:32:44.497Z,71.44
2024-01-08T09:33:44.521Z,71.96
2024-01-08T09:34:44.383Z,71.75
2024-01-08T09:35:44.456Z,70.81
2024-01-08T09:36:44.400Z,70.81
2024-01-08T09:37:44.346Z,70.91
2024-01-08T09:38:44.588Z,71.12
2024-01-08T09:39:44.319Z,70.70
2024-01-08T09:40:44.314Z,71.33
2024-01-08T09:41:44.308Z,71.12
2024-01-08T09:42:44.290Z,71.33
2024-01-08T09:43:44.288Z,70.91
2024-01-08T09:44:44.327Z,70.91
2024-01-08T09:45:44.258Z,70.60
2024-01-08T09:46:44.241Z,70.60
2024-01-08T09:47:44.704Z,69.97
2024-01-08T09:48:44.307Z,69.76
2024-01-08T09:49:44.252Z,70.18
2024-01-08T09:50:44.285Z,69.86
2024-01-08T09:51:44.198Z,69.97
2024-01-08T09:52:44.213Z,70.91
2024-01-08T09:53:44.216Z,70.28
2024-01-08T09:54:44.161Z,69.86
2024-01-08T09:55:44.154Z,70.18
2024-01-08T09:56:44.175Z,70.07
2024-01-08T09:57:44.167Z,69.55
2024-01-08T09:58:44.128Z,69.34
2024-01-08T09:59:44.142Z,69.06
2024-01-08T10:00:44.218Z,69.48
2024-01-08T10:01:44.163Z,69.48
2024-01-08T10:02:48.475Z,68.53
2024-01-08T10:03:44.144Z,69.06
2024-01-08T10:04:44.098Z,69.68
2024-01-08T10:05:44.120Z,68.92
2024-01-08T10:06:44.062Z,68.92
2024-01-08T10:07:44.054Z,68.50
2024-01-08T10:08:44.063Z,68.08
2024-01-08T10:09:44.054Z,68.60
2024-01-08T10:10:44.056Z,68.71
2024-01-08T10:11:44.103Z,68.29
2024-01-08T10:12:44.269Z,67.97
2024-01-08T10:13:44.062Z,68.29
2024-01-08T10:14:44.093Z,68.60
2024-01-08T10:15:43.963Z,68.50
2024-01-08T10:16:55.067Z,68.50
2024-01-08T10:17:45.162Z,67.97
2024-01-08T10:18:44.081Z,68.29
2024-01-08T10:19:44.040Z,68.68
2024-01-08T10:20:44.098Z,68.15
2024-01-08T10:21:44.264Z,68.26
2024-01-08T10:22:43.900Z,68.57
2024-01-08T10:23:44.057Z,68.57
2024-01-08T10:24:43.909Z,68.68
2024-01-08T10:25:43.916Z,68.89
2024-01-08T10:26:44.065Z,67.94
2024-01-08T10:27:43.975Z,67.74
2024-01-08T10:28:43.833Z,67.81
2024-01-08T10:29:43.828Z,67.71
2024-01-08T10:30:44.065Z,68.12
2024-01-08T10:31:43.838Z,67.39
2024-01-08T10:32:43.900Z,67.39
2024-01-08T10:33:43.928Z,68.12
2024-01-08T10:34:43.773Z,68.12
2024-01-08T10:35:43.887Z,67.60
2024-01-08T10:36:43.776Z,68.19
2024-01-08T10:37:43.746Z,68.72
2024-01-08T10:38:43.748Z,67.67
2024-01-08T10:39:50.348Z,67.36
2024-01-08T10:40:44.922Z,67.46
2024-01-08T10:41:43.790Z,67.46
2024-01-08T10:42:44.503Z,67.67
2024-01-08T10:43:43.754Z,68.62
2024-01-08T10:44:43.837Z,68.96
2024-01-08T10:45:43.699Z,68.75
2024-01-08T10:46:43.654Z,68.89
2024-01-08T10:47:43.722Z,68.99
2024-01-08T10:48:43.901Z,69.10
2024-01-08T10:49:43.665Z,69.31
2024-01-08T10:50:43.675Z,69.62
2024-01-08T10:51:43.597Z,69.20
2024-01-08T10:52:43.633Z,68.99
2024-01-08T10:53:43.646Z,69.10
2024-01-08T10:54:43.602Z,69.10
2024-01-08T10:55:43.608Z,69.20
2024-01-08T10:56:43.637Z,69.83
2024-01-08T10:57:43.582Z,68.99
2024-01-08T10:58:43.581Z,68.78
2024-01-08T10:59:43.591Z,68.37
2024-01-08T11:00:43.536Z,68.68
2024-01-08T11:01:43.562Z,68.99
2024-01-08T11:02:43.596Z,68.89
2024-01-08T11:03:43.509Z,68.68
2024-01-08T11:04:43.538Z,68.15
2024-01-08T11:05:43.554Z,67.32
2024-01-08T11:06:44.049Z,67.52
2024-01-08T11:07:43.449Z,68.26
2024-01-08T11:08:43.522Z,68.26
2024-01-08T11:09:43.454Z,68.05
2024-01-08T11:10:43.423Z,68.37
2024-01-08T11:11:43.454Z,67.84
2024-01-08T11:12:43.424Z,67.42
2024-01-08T11:13:43.421Z,67.52
2024-01-08T11:14:43.444Z,67.66
2024-01-08T11:15:43.381Z,67.77
2024-01-08T11:16:43.368Z,67.45
2024-01-08T11:17:43.389Z,67.55
2024-01-08T11:18:43.448Z,67.35
2024-01-08T11:19:43.377Z,67.35
2024-01-08T11:20:43.726Z,66.79
2024-01-08T11:21:43.306Z,66.47
2024-01-08T11:22:43.313Z,66.06
2024-01-08T11:23:43.957Z,66.16
2024-01-08T11:24:43.292Z,65.53
2024-01-08T11:25:43.265Z,66.06
2024-01-08T11:26:43.363Z,66.16
2024-01-08T11:27:43.249Z,65.74
2024-01-08T11:28:43.293Z,65.64
2024-01-08T11:29:43.249Z,64.90
2024-01-08T11:30:43.253Z,64.17
2024-01-08T11:31:43.214Z,63.93
2024-01-08T11:32:43.289Z,64.35
2024-01-08T11:33:43.305Z,63.43
2024-01-08T11:34:43.200Z,63.93
2024-01-08T11:35:43.268Z,63.75
2024-01-08T11:36:43.163Z,63.62
2024-01-08T11:37:43.157Z,63.96
2024-01-08T11:38:43.215Z,63.65
2024-01-08T11:39:43.138Z,63.72
2024-01-08T11:40:43.144Z,63.20
2024-01-08T11:41:43.133Z,63.82
2024-01-08T11:42:43.107Z,63.75
2024-01-08T11:43:43.225Z,63.54
2024-01-08T11:44:43.144Z,63.75
2024-01-08T11:45:43.066Z,63.43
2024-01-08T11:46:43.991Z,62.70
2024-01-08T11:47:43.171Z,62.81
2024-01-08T11:48:43.117Z,62.91
2024-01-08T11:49:43.024Z,62.81
2024-01-08T11:50:43.264Z,62.18
2024-01-08T11:51:43.014Z,61.94
2024-01-08T11:52:43.000Z,62.36
2024-01-08T11:53:43.051Z,62.36
2024-01-08T11:54:42.970Z,62.04
2024-01-08T11:55:42.956Z,61.94
2024-01-08T11:56:43.003Z,61.63
2024-01-08T11:57:42.944Z,61.21
2024-01-08T11:58:42.955Z,61.10
2024-01-08T11:59:42.968Z,61.83
2024-01-08T12:00:42.957Z,61.63
2024-01-08T12:01:42.926Z,61.73
2024-01-08T12:02:42.973Z,62.26
2024-01-08T12:03:42.961Z,62.99
2024-01-08T12:04:42.893Z,62.46
2024-01-08T12:05:42.972Z,62.77
2024-01-08T12:06:42.936Z,62.26
2024-01-08T12:07:42.866Z,62.26
2024-01-08T12:08:42.861Z,62.46
2024-01-08T12:09:42.820Z,62.36
2024-01-08T12:10:44.837Z,62.15
2024-01-08T12:11:42.886Z,62.46
2024-01-08T12:12:43.125Z,62.67
2024-01-08T12:13:42.779Z,61.52
2024-01-08T12:14:42.785Z,59.53
2024-01-08T12:15:42.766Z,59.34
2024-01-08T12:16:52.524Z,59.45
2024-01-08T12:17:43.881Z,59.34
2024-01-08T12:18:42.897Z,59.66
2024-01-08T12:19:42.733Z,59.77
2024-01-08T12:20:42.726Z,59.87
2024-01-08T12:21:46.149Z,60.71
2024-01-08T12:22:43.762Z,60.60
2024-01-08T12:23:42.751Z,60.39
2024-01-08T12:24:42.670Z,60.71
2024-01-08T12:25:42.672Z,60.82
2024-01-08T12:26:42.709Z,60.08
2024-01-08T12:27:42.704Z,59.77
2024-01-08T12:28:42.649Z,60.19
2024-01-08T12:29:42.715Z,59.66
2024-01-08T12:30:42.674Z,60.29
2024-01-08T12:31:42.617Z,60.08
2024-01-08T12:32:42.665Z,59.87
2024-01-08T12:33:42.613Z,60.29
2024-01-08T12:34:42.587Z,60.19
2024-01-08T12:35:42.583Z,59.87
2024-01-08T12:36:42.538Z,60.29
2024-01-08T12:37:42.534Z,60.19
2024-01-08T12:38:42.591Z,60.39
2024-01-08T12:39:42.537Z,60.50
2024-01-08T12:40:46.063Z,59.87
2024-01-08T12:41:42.564Z,60.19
2024-01-08T12:42:42.492Z,59.87
2024-01-08T12:43:42.477Z,59.56
2024-01-08T12:44:42.501Z,59.27
2024-01-08T12:45:42.477Z,58.95
2024-01-08T12:46:42.437Z,59.06
2024-01-08T12:47:42.670Z,59.69
2024-01-08T12:48:42.553Z,59.48
2024-01-08T12:49:42.444Z,59.16
2024-01-08T12:50:42.628Z,58.33
2024-01-08T12:51:42.399Z,58.64
2024-01-08T12:52:42.401Z,58.64